Address 0xf0df526972cfa206857c1411cb5c02793826e820

Txn Hash Method
Block
From
To
Value [Txn Fee]
0x0b9e424307b9e1dce3043c98c6509ab04ab9e8cc854648d7b63fd90a9e6fd93fSwap Exact Token...167544722022-07-01 10:51:4659 mins ago0xf0df526972cfa206857c1411cb5c02793826e820OUT Trader Joe: Router0 AVAX0.0033800730
0x5c2c7f6ad506cbbb3a6b1d288021aa4a7748767ff03087dd09f41df18d1c6bd3Swap Exact Token...167484702022-07-01 7:31:004 hrs 20 mins ago0xf0df526972cfa206857c1411cb5c02793826e820OUT Trader Joe: Router0 AVAX0.0033797130
0x1676aa173776db3972115b0ee673c796c21abb0389a9831894f45c14c040cad5Swap Exact Token...167482962022-07-01 7:25:124 hrs 25 mins ago0xf0df526972cfa206857c1411cb5c02793826e820OUT Trader Joe: Router0 AVAX0.0033800730
0xd471685f5e77b4d8775692c5726d950e9f1262a5884f9977bac523b406482fbcSwap Tokens For ...167477502022-07-01 7:06:574 hrs 44 mins ago0xf0df526972cfa206857c1411cb5c02793826e820OUT Trader Joe: Router0 AVAX0.003200430
0xceeb2ac42dabd1b8f2fa77129a9fc0ab76a54230ba31d103fbda861a8258bc6eSwap Exact Token...167471652022-07-01 6:47:285 hrs 3 mins ago0xf0df526972cfa206857c1411cb5c02793826e820OUT Trader Joe: Router0 AVAX0.0033800730
0xebaae90e8baf8f51eb13f3c69b2c27cdfc4e3a46c5fb3d549014568d542246d3Swap Tokens For ...167457392022-07-01 5:59:485 hrs 51 mins ago0xf0df526972cfa206857c1411cb5c02793826e820OUT Trader Joe: Router0 AVAX0.003200430
0xb839084003ced9b42dbfb545a28ec1d602529b5905e8607a04425b61acf20784Swap Exact Token...167417402022-07-01 3:46:058 hrs 4 mins ago0xf0df526972cfa206857c1411cb5c02793826e820OUT Trader Joe: Router0 AVAX0.0033800730
0x1f435a8009e28fb2a7d0264e8be475b69d4906610b24ab4f669f8d32fd883400Swap Exact Token...167346132022-06-30 23:49:3412 hrs 1 min ago0xf0df526972cfa206857c1411cb5c02793826e820OUT Trader Joe: Router0 AVAX0.0033797130
0x565b4df8391583f600629dcfd158f1108be83a82a6c303770e84550cda12138fSwap Exact Token...167312302022-06-30 21:56:2813 hrs 54 mins ago0xf0df526972cfa206857c1411cb5c02793826e820OUT Trader Joe: Router0 AVAX0.0033797130
0x3cb80671b5a570183cfadb41a9ba73cb58aca21bc48772e6090eff82d0ac30ccSwap Exact Token...167300802022-06-30 21:18:0314 hrs 33 mins ago0xf0df526972cfa206857c1411cb5c02793826e820OUT Trader Joe: Router0 AVAX0.0033800730
0xecf52bab38a13380e81c74582b282616d0b0ebe68fecfbe41d574df37f1843d2Swap Exact Token...167289652022-06-30 20:40:5415 hrs 10 mins ago0xf0df526972cfa206857c1411cb5c02793826e820OUT Trader Joe: Router0 AVAX0.0033797130
0x36aea8bfdedea50433f904480bc67e08d10eaf32716a8dad30f2ef302788ba10Swap Exact Token...167207252022-06-30 16:05:3719 hrs 45 mins ago0xf0df526972cfa206857c1411cb5c02793826e820OUT Trader Joe: Router0 AVAX0.0033797130
0x0eb267fbb2087bdcbe101248423ecc522b0692aa13a806e9a414845e32b5bc03Swap Tokens For ...167205422022-06-30 15:59:2919 hrs 51 mins ago0xf0df526972cfa206857c1411cb5c02793826e820OUT Trader Joe: Router0 AVAX0.0032000430
0x83ed592a4a338848206ab8af764f89c8b6ca8bf3604b3f83f98c63c954fe5bfbSwap Exact Token...167196412022-06-30 15:29:2020 hrs 21 mins ago0xf0df526972cfa206857c1411cb5c02793826e820OUT Trader Joe: Router0 AVAX0.0033800730
0xe5fac08b15ec952676daa79c802d83871ec52a94b1bf36a0cbe80eca4d2e3e88Swap Tokens For ...167168292022-06-30 13:55:3421 hrs 55 mins ago0xf0df526972cfa206857c1411cb5c02793826e820OUT Trader Joe: Router0 AVAX0.003200430
0xc462b8ce363397c490dd41c21c87fc4c89d66a16fcb15c807ee9a1ef1ad364beSwap Exact Token...167164002022-06-30 13:41:4522 hrs 9 mins ago0xf0df526972cfa206857c1411cb5c02793826e820OUT Trader Joe: Router0 AVAX0.0033797130
0x7c9809616c3be18b3f08191ff2d3c8417552aba494a2ab808bcb8886b86e4245Swap Exact Token...167159682022-06-30 13:27:2822 hrs 23 mins ago0xf0df526972cfa206857c1411cb5c02793826e820OUT Trader Joe: Router0 AVAX0.0033800730
0x539a7afc4464ac2c9e41ee6bacf9a6520fddc89be1e0520a5460d19e4f1f752dSwap Exact Token...167141622022-06-30 12:27:1323 hrs 23 mins ago0xf0df526972cfa206857c1411cb5c02793826e820OUT Trader Joe: Router0 AVAX0.0033800730
0xfd12b8e8c5b9d41a3b9d690d7e5e5f6247f66d98b435cf888dad07f22fe76b5bSwap Tokens For ...167127982022-06-30 11:41:401 day 9 mins ago0xf0df526972cfa206857c1411cb5c02793826e820OUT Trader Joe: Router0 AVAX0.003200430
0x786ef86bb219049308848558dbbc3908589eb88683b8a47ae75f90ebf5f19ebeSwap Exact Token...167103532022-06-30 10:19:471 day 1 hr ago0xf0df526972cfa206857c1411cb5c02793826e820OUT Trader Joe: Router0 AVAX0.0033800730
0x57eb92e0ba461d1337e2e2e861747ebdd0afefc5a7ca98ef23be7b2f5e5a3145Swap Tokens For ...167054212022-06-30 7:35:591 day 4 hrs ago0xf0df526972cfa206857c1411cb5c02793826e820OUT Trader Joe: Router0 AVAX0.003200430
0xe4a3ecd04d2927c7e3bf789c6d72c8cd00238dfca8be3533c691084b8cbc4c5aSwap Tokens For ...167027962022-06-30 6:08:471 day 5 hrs ago0xf0df526972cfa206857c1411cb5c02793826e820OUT Trader Joe: Router0 AVAX0.003200430
0xb47468489b3340f00f95cde39a1382f33f2fd49ba41962c55fcbec084039029aSwap Exact Token...166999412022-06-30 4:33:201 day 7 hrs ago0xf0df526972cfa206857c1411cb5c02793826e820OUT Trader Joe: Router0 AVAX0.0033797130
0xf9f76e36e47a004db999e7cb7f33bf5008ecbe76137085524ed454fa1caedd7eSwap Exact Token...166948622022-06-30 1:43:171 day 10 hrs ago0xf0df526972cfa206857c1411cb5c02793826e820OUT Trader Joe: Router0 AVAX0.0033800730
0x4ff1d14f229b7ccea996afaedefcaa1a4b418d366b587f02ee8cad935291f1cfSwap Exact Token...166919752022-06-30 0:07:131 day 11 hrs ago0xf0df526972cfa206857c1411cb5c02793826e820OUT Trader Joe: Router0 AVAX0.0033797130
[ Download CSV Export 
Parent Txn Hash Block From To Value
Loading

Contract Name:
0

Compiler Version
0

Optimization Enabled:
0

Other Settings:
-NA-
Block Transaction Gas Used Reward
Age Block Fee Address BC Fee Address Voting Power Jailed Incoming
Block Uncle Number Difficulty Gas Used Reward
Loading
Make sure to use the "Vote Down" button for any spammy posts, and the "Vote Up" for interesting conversations.